createdAt,value
2018-09-17T00:00:34.311Z,69.70
2018-09-17T00:03:02.174Z,69.60
2018-09-17T00:05:29.942Z,69.20
2018-09-17T00:07:57.546Z,69.20
2018-09-17T00:10:25.265Z,69.30
2018-09-17T00:12:52.900Z,69.50
2018-09-17T00:15:20.574Z,69.50
2018-09-17T00:17:48.512Z,69.80
2018-09-17T00:20:17.974Z,69.90
2018-09-17T00:22:45.705Z,70.10
2018-09-17T00:25:13.502Z,70.40
2018-09-17T00:27:41.422Z,70.50
2018-09-17T00:30:09.174Z,70.70
2018-09-17T00:32:36.857Z,70.30
2018-09-17T00:35:04.499Z,70.00
2018-09-17T00:37:32.240Z,70.20
2018-09-17T00:39:59.872Z,70.50
2018-09-17T00:42:27.448Z,69.80
2018-09-17T00:44:55.021Z,70.10
2018-09-17T00:47:22.616Z,70.20
2018-09-17T00:49:50.261Z,69.50
2018-09-17T00:52:17.925Z,69.40
2018-09-17T00:54:45.521Z,68.60
2018-09-17T00:57:13.179Z,68.40
2018-09-17T00:59:40.848Z,68.40
2018-09-17T01:02:08.573Z,68.50
2018-09-17T01:04:36.205Z,69.00
2018-09-17T01:07:03.823Z,69.20
2018-09-17T01:09:37.204Z,69.50
2018-09-17T01:12:04.856Z,68.90
2018-09-17T01:14:32.458Z,68.90
2018-09-17T01:17:00.327Z,68.60
2018-09-17T01:19:27.920Z,68.90
2018-09-17T01:21:55.687Z,68.90
2018-09-17T01:24:23.354Z,69.20
2018-09-17T01:26:50.951Z,69.40
2018-09-17T01:29:18.652Z,68.50
2018-09-17T01:31:46.331Z,69.20
2018-09-17T01:34:13.965Z,68.90
2018-09-17T01:36:41.627Z,69.40
2018-09-17T01:39:10.764Z,69.80
2018-09-17T01:41:38.393Z,70.00
2018-09-17T01:44:06.568Z,70.30
2018-09-17T01:46:34.197Z,70.70
2018-09-17T01:49:02.068Z,70.70
2018-09-17T01:51:29.919Z,70.70
2018-09-17T01:53:57.481Z,70.50
2018-09-17T01:56:25.274Z,71.50
2018-09-17T01:58:52.919Z,71.70
2018-09-17T02:01:20.643Z,71.60
2018-09-17T02:03:48.277Z,70.60
2018-09-17T02:06:15.834Z,71.00
2018-09-17T02:08:43.684Z,72.40
2018-09-17T02:11:11.297Z,71.90
2018-09-17T02:13:38.882Z,73.20
2018-09-17T02:16:06.760Z,73.10
2018-09-17T02:18:34.291Z,73.50
2018-09-17T02:21:01.924Z,73.20
2018-09-17T02:23:29.535Z,74.60
2018-09-17T02:25:57.174Z,75.20
2018-09-17T02:28:24.774Z,74.10
2018-09-17T02:30:52.428Z,74.80
2018-09-17T02:33:20.054Z,75.30
2018-09-17T02:35:47.662Z,74.90
2018-09-17T02:38:15.375Z,74.80
2018-09-17T02:40:42.991Z,74.70
2018-09-17T02:43:10.585Z,76.00
2018-09-17T02:45:38.256Z,76.00
2018-09-17T02:48:05.920Z,76.00
2018-09-17T02:50:33.541Z,76.30
2018-09-17T02:53:01.233Z,77.00
2018-09-17T02:55:28.835Z,77.10
2018-09-17T02:57:57.307Z,77.50
2018-09-17T03:00:24.975Z,77.70
2018-09-17T03:02:53.102Z,78.50
2018-09-17T03:05:20.816Z,77.60
2018-09-17T03:07:48.470Z,77.50
2018-09-17T03:10:16.466Z,77.90
2018-09-17T03:12:44.095Z,78.00
2018-09-17T03:15:23.060Z,77.50
2018-09-17T03:17:50.735Z,77.80
2018-09-17T03:20:18.386Z,78.50
2018-09-17T03:22:46.064Z,79.00
2018-09-17T03:25:13.689Z,78.50
2018-09-17T03:27:41.330Z,79.50
2018-09-17T03:30:09.004Z,80.30
2018-09-17T03:32:36.702Z,81.20
2018-09-17T03:35:04.370Z,80.00
2018-09-17T03:37:32.081Z,80.20
2018-09-17T03:40:00.174Z,79.80
2018-09-17T03:42:28.630Z,80.90
2018-09-17T03:44:56.962Z,80.70
2018-09-17T03:47:24.670Z,80.80
2018-09-17T03:49:52.153Z,80.60
2018-09-17T03:52:19.725Z,79.00
2018-09-17T03:54:47.418Z,79.10
2018-09-17T03:57:15.047Z,78.80
2018-09-17T03:59:42.956Z,77.70
2018-09-17T04:02:10.927Z,78.20
2018-09-17T04:04:39.113Z,78.00
2018-09-17T04:07:07.165Z,76.40
2018-09-17T04:09:34.856Z,78.90
2018-09-17T04:12:02.728Z,77.90
2018-09-17T04:14:30.426Z,76.60
2018-09-17T04:16:58.333Z,77.50
2018-09-17T04:19:25.898Z,78.00
2018-09-17T04:21:53.540Z,77.80
2018-09-17T04:24:21.231Z,76.90
2018-09-17T04:26:48.886Z,76.40
2018-09-17T04:29:16.536Z,78.60
2018-09-17T04:31:44.288Z,81.10
2018-09-17T04:34:12.150Z,80.60
2018-09-17T04:36:39.884Z,80.10
2018-09-17T04:39:09.206Z,78.20
2018-09-17T04:41:36.983Z,78.10
2018-09-17T04:44:04.756Z,78.40
2018-09-17T04:46:32.624Z,77.80
2018-09-17T04:49:00.459Z,77.60
2018-09-17T04:51:28.044Z,77.20
2018-09-17T04:53:56.060Z,76.40
2018-09-17T04:56:23.782Z,76.60
2018-09-17T04:58:51.641Z,78.00
2018-09-17T05:01:19.220Z,77.10
2018-09-17T05:03:46.830Z,76.20
2018-09-17T05:06:14.967Z,75.70
2018-09-17T05:08:42.737Z,75.90
2018-09-17T05:11:10.597Z,75.80
2018-09-17T05:13:38.213Z,75.90
2018-09-17T05:16:06.193Z,76.60
2018-09-17T05:18:34.137Z,75.60
2018-09-17T05:21:01.919Z,75.80
2018-09-17T05:23:29.519Z,77.00
2018-09-17T05:25:57.429Z,77.90
2018-09-17T05:28:25.220Z,76.80
2018-09-17T05:30:52.942Z,76.60
2018-09-17T05:33:20.638Z,76.20
2018-09-17T05:35:48.278Z,76.80
2018-09-17T05:38:15.965Z,77.50
2018-09-17T05:40:43.590Z,77.40
2018-09-17T05:43:11.214Z,78.60
2018-09-17T05:45:38.813Z,77.50
2018-09-17T05:48:06.575Z,77.00
2018-09-17T05:50:34.255Z,77.20
2018-09-17T05:53:02.093Z,76.50
2018-09-17T05:55:30.089Z,75.80
2018-09-17T05:57:57.816Z,74.80
2018-09-17T06:00:25.456Z,74.50
2018-09-17T06:02:53.088Z,74.00
2018-09-17T06:05:20.772Z,73.80
2018-09-17T06:07:48.475Z,73.30
2018-09-17T06:10:16.793Z,73.40
2018-09-17T06:12:46.371Z,72.00
2018-09-17T06:15:14.577Z,72.20
2018-09-17T06:17:42.558Z,72.10
2018-09-17T06:20:10.233Z,71.40
2018-09-17T06:22:37.788Z,70.00
2018-09-17T06:25:05.480Z,68.40
2018-09-17T06:27:33.222Z,66.50
2018-09-17T06:30:01.165Z,64.70
2018-09-17T06:32:28.656Z,62.90
2018-09-17T06:34:56.535Z,61.40
2018-09-17T06:37:24.262Z,59.90
2018-09-17T06:39:51.961Z,59.70
2018-09-17T06:42:19.682Z,58.50
2018-09-17T06:44:47.326Z,57.90
2018-09-17T06:47:14.928Z,57.60
2018-09-17T06:49:42.454Z,56.60
2018-09-17T06:52:10.238Z,55.90
2018-09-17T06:54:37.940Z,55.00
2018-09-17T06:57:05.598Z,54.70
2018-09-17T06:59:33.306Z,54.00
2018-09-17T07:02:01.442Z,53.90
2018-09-17T07:04:29.014Z,53.50
2018-09-17T07:06:57.215Z,53.50
2018-09-17T07:09:24.830Z,52.50
2018-09-17T07:11:52.325Z,52.50
2018-09-17T07:14:20.027Z,52.30
2018-09-17T07:16:47.584Z,52.10
2018-09-17T07:19:15.233Z,51.60
2018-09-17T07:21:42.857Z,51.20
2018-09-17T07:24:10.467Z,50.70
2018-09-17T07:26:38.111Z,50.30
2018-09-17T07:29:05.956Z,50.30
2018-09-17T07:31:33.512Z,50.30
2018-09-17T07:34:01.269Z,49.60
2018-09-17T07:36:29.358Z,49.40
2018-09-17T07:38:57.095Z,49.20
2018-09-17T07:41:24.774Z,49.00
2018-09-17T07:43:52.369Z,48.90
2018-09-17T07:46:20.222Z,48.30
2018-09-17T07:48:47.829Z,47.90
2018-09-17T07:51:15.482Z,47.60
2018-09-17T07:53:43.257Z,47.60
2018-09-17T07:56:10.797Z,47.10
2018-09-17T07:58:38.422Z,47.00
2018-09-17T08:01:06.165Z,46.80
2018-09-17T08:03:33.804Z,46.40
2018-09-17T08:06:01.725Z,46.10
2018-09-17T08:08:29.331Z,45.70
2018-09-17T08:10:57.064Z,45.50
2018-09-17T08:13:25.031Z,45.50
2018-09-17T08:15:52.591Z,45.40
2018-09-17T08:18:20.896Z,45.00
2018-09-17T08:20:48.471Z,45.80
2018-09-17T08:23:16.650Z,45.20
2018-09-17T08:25:44.243Z,45.10
2018-09-17T08:28:11.886Z,44.80
2018-09-17T08:30:39.527Z,44.30
2018-09-17T08:33:07.138Z,44.50
2018-09-17T08:35:34.715Z,44.20
2018-09-17T08:38:02.366Z,44.10
2018-09-17T08:40:30.116Z,43.90
2018-09-17T08:42:57.710Z,43.60
2018-09-17T08:45:25.492Z,44.00
2018-09-17T08:47:53.077Z,44.10
2018-09-17T08:50:20.693Z,44.10
2018-09-17T08:52:48.287Z,43.70
2018-09-17T08:55:21.626Z,43.80
2018-09-17T08:57:54.889Z,44.10
2018-09-17T09:00:27.038Z,44.20
2018-09-17T09:03:33.676Z,44.20
2018-09-17T09:06:07.554Z,44.20
2018-09-17T09:08:35.268Z,44.20
2018-09-17T09:11:08.758Z,44.50
2018-09-17T09:13:41.960Z,45.00
2018-09-17T09:16:10.016Z,45.10
2018-09-17T09:18:37.708Z,45.20
2018-09-17T09:21:05.753Z,45.80
2018-09-17T09:23:33.377Z,45.60
2018-09-17T09:26:01.355Z,46.60
2018-09-17T09:28:29.654Z,46.40
2018-09-17T09:30:57.569Z,46.00
2018-09-17T09:33:25.133Z,46.80
2018-09-17T09:35:52.846Z,46.90
2018-09-17T09:38:20.453Z,47.30
2018-09-17T09:40:48.048Z,47.20
2018-09-17T09:43:15.764Z,47.20
2018-09-17T09:45:43.348Z,47.10
2018-09-17T09:48:11.046Z,47.20
2018-09-17T09:50:38.716Z,46.90
2018-09-17T09:53:06.384Z,47.00
2018-09-17T09:55:33.401Z,47.00
2018-09-17T09:58:00.450Z,46.50
2018-09-17T10:00:33.172Z,45.70
2018-09-17T10:03:05.653Z,45.50
2018-09-17T10:05:32.653Z,46.60
2018-09-17T10:07:59.689Z,45.50
2018-09-17T10:10:32.540Z,45.30
2018-09-17T10:13:05.252Z,45.50
2018-09-17T10:15:39.715Z,45.60
2018-09-17T10:18:12.427Z,45.80
2018-09-17T10:20:39.800Z,45.00
2018-09-17T10:23:10.499Z,44.00
2018-09-17T10:25:37.538Z,44.10
2018-09-17T10:28:04.783Z,44.50
2018-09-17T10:30:31.792Z,44.50
2018-09-17T10:32:58.810Z,44.10
2018-09-17T10:35:25.998Z,44.30
2018-09-17T10:37:53.037Z,44.10
2018-09-17T10:40:20.473Z,43.80
2018-09-17T10:42:48.081Z,43.90
2018-09-17T10:45:15.923Z,44.10
2018-09-17T10:47:43.837Z,44.20
2018-09-17T10:50:11.920Z,44.10
2018-09-17T10:52:40.106Z,43.70
2018-09-17T10:55:07.793Z,44.00
2018-09-17T10:57:35.783Z,42.30
2018-09-17T11:00:03.749Z,43.10
2018-09-17T11:02:31.442Z,42.40
2018-09-17T11:04:59.306Z,42.10
2018-09-17T11:07:27.078Z,41.80
2018-09-17T11:09:54.763Z,42.20
2018-09-17T11:12:22.551Z,41.70
2018-09-17T11:14:50.105Z,41.20
2018-09-17T11:17:17.743Z,41.20
2018-09-17T11:19:45.510Z,41.20
2018-09-17T11:22:13.220Z,40.90
2018-09-17T11:24:40.808Z,41.30
2018-09-17T11:27:08.446Z,40.70
2018-09-17T11:29:36.285Z,41.10
2018-09-17T11:32:04.075Z,40.40
2018-09-17T11:34:31.690Z,39.40
2018-09-17T11:36:59.364Z,39.30
2018-09-17T11:39:26.994Z,39.20
2018-09-17T11:41:54.595Z,39.00
2018-09-17T11:44:22.343Z,39.40
2018-09-17T11:46:50.046Z,39.40
2018-09-17T11:49:17.784Z,39.90
2018-09-17T11:51:45.912Z,40.30
2018-09-17T11:54:13.535Z,40.20
2018-09-17T11:56:41.214Z,40.70
2018-09-17T11:59:08.957Z,40.40
2018-09-17T12:01:42.413Z,40.60
2018-09-17T12:04:13.618Z,41.00
2018-09-17T12:06:48.118Z,41.00
2018-09-17T12:09:15.816Z,41.00
2018-09-17T12:11:43.347Z,41.50
2018-09-17T12:14:11.008Z,42.00
2018-09-17T12:16:38.637Z,42.00
2018-09-17T12:19:06.296Z,42.10
2018-09-17T12:21:33.921Z,42.40
2018-09-17T12:24:01.773Z,42.70
2018-09-17T12:26:29.594Z,42.40
2018-09-17T12:28:57.219Z,42.70
2018-09-17T12:31:25.298Z,42.50
2018-09-17T12:33:53.107Z,43.00
2018-09-17T12:36:20.734Z,42.90
2018-09-17T12:38:48.498Z,43.00
2018-09-17T12:41:16.324Z,43.60
2018-09-17T12:43:44.005Z,43.70
2018-09-17T12:46:11.815Z,44.10
2018-09-17T12:48:39.468Z,44.80
2018-09-17T12:51:07.162Z,45.10
2018-09-17T12:53:36.050Z,45.10
2018-09-17T12:56:04.007Z,45.00
2018-09-17T12:58:31.755Z,45.10
2018-09-17T13:00:59.539Z,45.20
2018-09-17T13:03:27.359Z,44.70
2018-09-17T13:05:55.057Z,43.60
2018-09-17T13:08:23.055Z,43.30
2018-09-17T13:10:50.716Z,42.60
2018-09-17T13:13:18.543Z,42.90
2018-09-17T13:15:51.609Z,42.90
2018-09-17T13:18:19.765Z,43.00
2018-09-17T13:20:47.468Z,43.10
2018-09-17T13:23:15.172Z,44.00
2018-09-17T13:25:43.040Z,43.60
2018-09-17T13:28:10.974Z,44.00
2018-09-17T13:30:38.732Z,44.30
2018-09-17T13:33:06.611Z,43.80
2018-09-17T13:35:34.345Z,43.60
2018-09-17T13:38:02.128Z,43.50
2018-09-17T13:40:29.789Z,43.40
2018-09-17T13:42:57.455Z,40.00
2018-09-17T13:45:25.208Z,39.40
2018-09-17T13:47:53.004Z,38.20
2018-09-17T13:50:20.924Z,38.00
2018-09-17T13:52:48.571Z,36.20
2018-09-17T13:55:16.257Z,35.50
2018-09-17T13:57:44.047Z,34.40
2018-09-17T14:00:11.717Z,34.10
2018-09-17T14:02:39.362Z,34.60
2018-09-17T14:05:07.215Z,34.60
2018-09-17T14:07:34.918Z,34.50
2018-09-17T14:10:02.869Z,34.20
2018-09-17T14:12:30.645Z,34.60
2018-09-17T14:14:58.368Z,35.10
2018-09-17T14:17:26.104Z,35.50
2018-09-17T14:19:53.691Z,34.00
2018-09-17T14:22:21.499Z,33.60
2018-09-17T14:24:49.084Z,34.60
2018-09-17T14:27:16.696Z,35.00
2018-09-17T14:29:44.304Z,35.50
2018-09-17T14:32:17.508Z,35.00
2018-09-17T14:34:45.201Z,34.40
2018-09-17T14:37:13.095Z,34.90
2018-09-17T14:39:40.741Z,34.80
2018-09-17T14:42:08.586Z,34.90
2018-09-17T14:44:36.227Z,34.00
2018-09-17T14:47:03.963Z,34.70
2018-09-17T14:49:32.055Z,34.20
2018-09-17T14:51:59.952Z,35.20
2018-09-17T14:54:27.618Z,34.60
2018-09-17T14:56:55.242Z,34.30
2018-09-17T14:59:22.975Z,34.70
2018-09-17T15:01:50.720Z,35.20
2018-09-17T15:04:18.505Z,35.50
2018-09-17T15:06:46.151Z,35.90
2018-09-17T15:09:13.873Z,36.20
2018-09-17T15:11:41.736Z,36.10
2018-09-17T15:14:10.169Z,35.80
2018-09-17T15:16:37.870Z,36.20
2018-09-17T15:19:05.933Z,36.50
2018-09-17T15:21:33.645Z,36.30
2018-09-17T15:24:01.478Z,36.60
2018-09-17T15:26:29.278Z,37.10
2018-09-17T15:28:56.869Z,37.40
2018-09-17T15:31:24.710Z,37.60
2018-09-17T15:33:52.496Z,38.00
2018-09-17T15:36:20.243Z,37.90
2018-09-17T15:38:48.046Z,37.00
2018-09-17T15:41:16.087Z,37.40
2018-09-17T15:43:43.775Z,37.40
2018-09-17T15:46:11.747Z,37.70
2018-09-17T15:48:39.663Z,37.40
2018-09-17T15:51:07.684Z,37.60
2018-09-17T15:53:35.333Z,38.40
2018-09-17T15:56:03.057Z,38.60
2018-09-17T15:58:30.763Z,38.80
2018-09-17T16:00:58.586Z,38.80
2018-09-17T16:03:26.276Z,39.50
2018-09-17T16:05:54.041Z,39.10
2018-09-17T16:08:21.994Z,39.10
2018-09-17T16:10:49.766Z,39.90
2018-09-17T16:13:17.388Z,39.90
2018-09-17T16:15:46.554Z,40.50
2018-09-17T16:18:14.617Z,40.90
2018-09-17T16:20:42.318Z,40.70
2018-09-17T16:23:09.956Z,40.50
2018-09-17T16:25:37.587Z,40.90
2018-09-17T16:28:05.481Z,41.20
2018-09-17T16:30:33.434Z,41.50
2018-09-17T16:33:01.387Z,41.40
2018-09-17T16:35:34.744Z,41.30
2018-09-17T16:38:02.378Z,42.20
2018-09-17T16:40:30.040Z,42.40
2018-09-17T16:42:57.754Z,42.70
2018-09-17T16:45:25.340Z,42.90
2018-09-17T16:47:53.012Z,43.10
2018-09-17T16:50:21.013Z,43.20
2018-09-17T16:52:48.695Z,43.50
2018-09-17T16:55:16.313Z,44.20
2018-09-17T16:57:43.856Z,44.10
2018-09-17T17:00:11.541Z,44.70
2018-09-17T17:02:39.152Z,44.80
2018-09-17T17:05:06.874Z,45.00
2018-09-17T17:07:34.550Z,45.70
2018-09-17T17:10:02.307Z,45.90
2018-09-17T17:12:29.874Z,46.20
2018-09-17T17:14:57.727Z,46.40
2018-09-17T17:17:25.350Z,46.90
2018-09-17T17:19:53.182Z,47.10
2018-09-17T17:22:21.217Z,47.10
2018-09-17T17:24:49.084Z,47.00
2018-09-17T17:27:16.776Z,47.20
2018-09-17T17:29:44.542Z,47.90
2018-09-17T17:32:12.303Z,48.20
2018-09-17T17:34:39.966Z,48.80
2018-09-17T17:37:07.707Z,49.20
2018-09-17T17:39:35.388Z,49.50
2018-09-17T17:42:03.006Z,49.60
2018-09-17T17:44:30.639Z,49.80
2018-09-17T17:46:58.204Z,51.00
2018-09-17T17:49:26.226Z,51.50
2018-09-17T17:51:53.966Z,52.10
2018-09-17T17:54:21.698Z,51.70
2018-09-17T17:56:50.528Z,51.80
2018-09-17T17:59:18.158Z,52.20
2018-09-17T18:01:46.037Z,52.00
2018-09-17T18:04:13.836Z,53.50
2018-09-17T18:06:41.735Z,53.40
2018-09-17T18:09:10.771Z,53.40
2018-09-17T18:11:38.991Z,53.30
2018-09-17T18:14:06.693Z,53.70
2018-09-17T18:16:34.501Z,54.60
2018-09-17T18:19:02.658Z,54.10
2018-09-17T18:21:30.699Z,54.40
2018-09-17T18:23:59.432Z,54.70
2018-09-17T18:26:27.910Z,54.80
2018-09-17T18:28:56.465Z,55.50
2018-09-17T18:31:24.626Z,55.40
2018-09-17T18:33:52.975Z,56.00
2018-09-17T18:36:21.347Z,56.10
2018-09-17T18:38:49.821Z,56.50
2018-09-17T18:41:17.839Z,57.20
2018-09-17T18:43:45.986Z,57.40
2018-09-17T18:46:14.555Z,57.50
2018-09-17T18:48:42.689Z,57.80
2018-09-17T18:51:11.141Z,57.90
2018-09-17T18:53:39.374Z,58.20
2018-09-17T18:56:07.762Z,58.70
2018-09-17T18:58:35.860Z,59.10
2018-09-17T19:01:04.101Z,59.30
2018-09-17T19:03:32.482Z,59.70
2018-09-17T19:06:00.763Z,60.00
2018-09-17T19:08:28.739Z,60.20
2018-09-17T19:10:56.892Z,60.60
2018-09-17T19:13:25.009Z,61.00
2018-09-17T19:15:55.028Z,61.80
2018-09-17T19:18:23.168Z,61.70
2018-09-17T19:20:51.916Z,62.30
2018-09-17T19:23:25.291Z,62.60
2018-09-17T19:25:54.018Z,63.00
2018-09-17T19:28:26.851Z,63.50
2018-09-17T19:30:54.975Z,64.00
2018-09-17T19:33:23.004Z,64.20
2018-09-17T19:35:51.145Z,64.50
2018-09-17T19:38:25.895Z,64.90
2018-09-17T19:40:53.817Z,64.80
2018-09-17T19:43:22.195Z,65.40
2018-09-17T19:45:56.034Z,65.40
2018-09-17T19:51:24.218Z,65.20
2018-09-17T19:53:51.963Z,65.50
2018-09-17T19:56:19.830Z,65.40
2018-09-17T19:58:53.185Z,66.60
2018-09-17T20:01:21.241Z,66.20
2018-09-17T20:03:48.999Z,66.40
2018-09-17T20:06:27.677Z,66.40
2018-09-17T20:08:55.594Z,66.90
2018-09-17T20:11:23.348Z,66.90
2018-09-17T20:13:51.121Z,66.50
2018-09-17T20:16:19.541Z,66.20
2018-09-17T20:18:47.689Z,65.80
2018-09-17T20:21:16.918Z,65.80
2018-09-17T20:23:51.324Z,66.60
2018-09-17T20:26:19.565Z,67.00
2018-09-17T20:28:47.404Z,67.50
2018-09-17T20:31:15.195Z,67.80
2018-09-17T20:33:43.354Z,68.00
2018-09-17T20:36:11.181Z,68.10
2018-09-17T20:38:40.139Z,68.40
2018-09-17T20:41:07.791Z,69.00
2018-09-17T20:43:35.591Z,69.10
2018-09-17T20:46:03.678Z,69.20
2018-09-17T20:48:31.320Z,70.40
2018-09-17T20:51:01.515Z,69.60
2018-09-17T20:53:29.862Z,69.70
2018-09-17T20:55:57.846Z,70.20
2018-09-17T20:58:25.878Z,70.50
2018-09-17T21:00:53.885Z,70.50
2018-09-17T21:03:21.855Z,70.40
2018-09-17T21:05:50.880Z,70.60
2018-09-17T21:08:19.608Z,71.00
2018-09-17T21:10:47.526Z,71.40
2018-09-17T21:13:15.506Z,71.50
2018-09-17T21:15:43.795Z,71.40
2018-09-17T21:18:11.726Z,71.60
2018-09-17T21:20:44.209Z,72.20
2018-09-17T21:23:12.050Z,73.00
2018-09-17T21:25:39.899Z,73.20
2018-09-17T21:28:08.068Z,73.60
2018-09-17T21:30:35.993Z,73.70
2018-09-17T21:33:04.355Z,73.80
2018-09-17T21:35:32.662Z,73.80
2018-09-17T21:38:00.617Z,74.60
2018-09-17T21:40:28.581Z,74.40
2018-09-17T21:42:56.768Z,73.50
2018-09-17T21:45:24.680Z,73.60
2018-09-17T21:47:52.663Z,73.70
2018-09-17T21:50:20.660Z,73.90
2018-09-17T21:52:48.786Z,73.80
2018-09-17T21:55:17.545Z,74.00
2018-09-17T21:57:45.501Z,74.50
2018-09-17T22:00:13.543Z,74.90
2018-09-17T22:02:41.431Z,75.80
2018-09-17T22:05:09.532Z,76.10
2018-09-17T22:07:37.489Z,76.20
2018-09-17T22:10:05.578Z,76.40
2018-09-17T22:12:33.655Z,76.40
2018-09-17T22:15:01.640Z,76.80
2018-09-17T22:17:30.315Z,77.20
2018-09-17T22:19:58.230Z,77.70
2018-09-17T22:22:26.173Z,78.10
2018-09-17T22:24:55.172Z,78.40
2018-09-17T22:27:23.183Z,78.90
2018-09-17T22:29:51.204Z,79.10
2018-09-17T22:32:19.162Z,78.20
2018-09-17T22:34:47.149Z,77.70
2018-09-17T22:37:15.226Z,77.50
2018-09-17T22:39:43.809Z,77.70
2018-09-17T22:42:13.951Z,76.90
2018-09-17T22:44:42.584Z,76.50
2018-09-17T22:47:10.719Z,75.30
2018-09-17T22:49:39.692Z,75.40
2018-09-17T22:52:07.747Z,75.50
2018-09-17T22:54:35.734Z,76.30
2018-09-17T22:57:03.360Z,75.60
2018-09-17T22:59:31.493Z,74.60
2018-09-17T23:01:59.256Z,74.10
2018-09-17T23:04:26.867Z,74.10
2018-09-17T23:06:54.470Z,74.50
2018-09-17T23:09:22.168Z,74.30
2018-09-17T23:11:49.791Z,74.90
2018-09-17T23:14:17.420Z,75.20
2018-09-17T23:16:45.100Z,75.40
2018-09-17T23:19:13.084Z,75.40
2018-09-17T23:21:40.766Z,74.80
2018-09-17T23:24:08.566Z,75.30
2018-09-17T23:26:37.475Z,75.50
2018-09-17T23:29:05.391Z,75.40
2018-09-17T23:31:33.331Z,74.70
2018-09-17T23:34:00.971Z,74.30
2018-09-17T23:36:28.522Z,74.10
2018-09-17T23:38:56.275Z,73.30
2018-09-17T23:41:24.025Z,72.70
2018-09-17T23:43:51.703Z,72.80
2018-09-17T23:46:19.401Z,72.70
2018-09-17T23:48:47.026Z,73.10
2018-09-17T23:51:14.713Z,73.30
2018-09-17T23:53:42.395Z,73.00
2018-09-17T23:56:10.147Z,73.10
2018-09-17T23:58:37.888Z,73.20
